sensor_id;sensor_type;location;lat;lon;timestamp;P1;durP1;ratioP1;P2;durP2;ratioP2
16845;SDS011;8539;53.188;8.696;2023-08-20T00:02:15;12.73;;;6.13;;
16845;SDS011;8539;53.188;8.696;2023-08-20T00:04:45;8.55;;;5.57;;
16845;SDS011;8539;53.188;8.696;2023-08-20T00:07:13;6.72;;;5.63;;
16845;SDS011;8539;53.188;8.696;2023-08-20T00:09:41;9.57;;;6.20;;
16845;SDS011;8539;53.188;8.696;2023-08-20T00:12:07;9.10;;;5.90;;
16845;SDS011;8539;53.188;8.696;2023-08-20T00:17:37;9.30;;;6.32;;
16845;SDS011;8539;53.188;8.696;2023-08-20T00:20:05;11.88;;;7.75;;
16845;SDS011;8539;53.188;8.696;2023-08-20T00:22:39;13.85;;;6.35;;
16845;SDS011;8539;53.188;8.696;2023-08-20T00:25:07;10.90;;;6.18;;
16845;SDS011;8539;53.188;8.696;2023-08-20T00:27:34;9.07;;;6.68;;
16845;SDS011;8539;53.188;8.696;2023-08-20T00:30:00;10.20;;;6.20;;
16845;SDS011;8539;53.188;8.696;2023-08-20T00:32:26;8.23;;;6.05;;
16845;SDS011;8539;53.188;8.696;2023-08-20T00:34:52;9.77;;;7.90;;
16845;SDS011;8539;53.188;8.696;2023-08-20T00:37:18;8.65;;;6.47;;
16845;SDS011;8539;53.188;8.696;2023-08-20T00:39:44;9.50;;;6.68;;
16845;SDS011;8539;53.188;8.696;2023-08-20T00:42:11;10.73;;;6.07;;
16845;SDS011;8539;53.188;8.696;2023-08-20T00:44:42;9.43;;;5.53;;
16845;SDS011;8539;53.188;8.696;2023-08-20T00:47:12;9.77;;;8.40;;
16845;SDS011;8539;53.188;8.696;2023-08-20T00:49:39;12.90;;;8.45;;
16845;SDS011;8539;53.188;8.696;2023-08-20T00:52:06;10.45;;;6.30;;
16845;SDS011;8539;53.188;8.696;2023-08-20T00:54:34;13.15;;;6.88;;
16845;SDS011;8539;53.188;8.696;2023-08-20T00:57:01;11.05;;;7.95;;
16845;SDS011;8539;53.188;8.696;2023-08-20T00:59:31;12.70;;;7.85;;
16845;SDS011;8539;53.188;8.696;2023-08-20T01:01:58;8.52;;;7.28;;
16845;SDS011;8539;53.188;8.696;2023-08-20T01:04:25;13.52;;;7.57;;
16845;SDS011;8539;53.188;8.696;2023-08-20T01:12:34;9.98;;;7.00;;
16845;SDS011;8539;53.188;8.696;2023-08-20T01:15:01;11.32;;;8.02;;
16845;SDS011;8539;53.188;8.696;2023-08-20T01:17:27;14.43;;;8.32;;
16845;SDS011;8539;53.188;8.696;2023-08-20T01:19:54;12.18;;;7.95;;
16845;SDS011;8539;53.188;8.696;2023-08-20T01:30:40;14.10;;;9.02;;
16845;SDS011;8539;53.188;8.696;2023-08-20T01:33:07;12.82;;;7.70;;
16845;SDS011;8539;53.188;8.696;2023-08-20T01:35:34;10.93;;;7.50;;
16845;SDS011;8539;53.188;8.696;2023-08-20T01:38:00;12.68;;;6.55;;
16845;SDS011;8539;53.188;8.696;2023-08-20T01:40:27;20.05;;;10.43;;
16845;SDS011;8539;53.188;8.696;2023-08-20T01:42:53;10.65;;;7.65;;
16845;SDS011;8539;53.188;8.696;2023-08-20T01:45:19;11.65;;;8.07;;
16845;SDS011;8539;53.188;8.696;2023-08-20T01:47:47;12.32;;;9.43;;
16845;SDS011;8539;53.188;8.696;2023-08-20T01:50:13;14.50;;;9.05;;
16845;SDS011;8539;53.188;8.696;2023-08-20T01:52:39;15.18;;;10.38;;
16845;SDS011;8539;53.188;8.696;2023-08-20T01:55:05;14.18;;;9.77;;
16845;SDS011;8539;53.188;8.696;2023-08-20T01:57:31;14.90;;;10.25;;
16845;SDS011;8539;53.188;8.696;2023-08-20T01:59:58;16.48;;;9.75;;
16845;SDS011;8539;53.188;8.696;2023-08-20T02:02:24;12.00;;;9.13;;
16845;SDS011;8539;53.188;8.696;2023-08-20T02:04:50;11.25;;;9.18;;
16845;SDS011;8539;53.188;8.696;2023-08-20T02:07:16;14.80;;;10.25;;
16845;SDS011;8539;53.188;8.696;2023-08-20T02:09:42;16.02;;;12.35;;
16845;SDS011;8539;53.188;8.696;2023-08-20T02:12:09;15.07;;;9.60;;
16845;SDS011;8539;53.188;8.696;2023-08-20T02:14:35;12.45;;;9.55;;
16845;SDS011;8539;53.188;8.696;2023-08-20T02:17:02;15.30;;;10.45;;
16845;SDS011;8539;53.188;8.696;2023-08-20T02:19:28;13.45;;;8.82;;
16845;SDS011;8539;53.188;8.696;2023-08-20T02:21:54;15.75;;;10.10;;
16845;SDS011;8539;53.188;8.696;2023-08-20T02:24:21;20.52;;;10.00;;
16845;SDS011;8539;53.188;8.696;2023-08-20T02:26:47;16.85;;;10.48;;
16845;SDS011;8539;53.188;8.696;2023-08-20T02:29:13;18.33;;;10.00;;
16845;SDS011;8539;53.188;8.696;2023-08-20T02:31:40;13.63;;;10.00;;
16845;SDS011;8539;53.188;8.696;2023-08-20T02:34:06;10.35;;;8.07;;
16845;SDS011;8539;53.188;8.696;2023-08-20T02:36:32;13.52;;;10.80;;
16845;SDS011;8539;53.188;8.696;2023-08-20T02:38:58;19.25;;;10.85;;
16845;SDS011;8539;53.188;8.696;2023-08-20T02:41:24;17.45;;;10.73;;
16845;SDS011;8539;53.188;8.696;2023-08-20T02:43:50;12.23;;;9.07;;
16845;SDS011;8539;53.188;8.696;2023-08-20T02:46:16;15.95;;;10.55;;
16845;SDS011;8539;53.188;8.696;2023-08-20T02:48:42;13.00;;;9.82;;
16845;SDS011;8539;53.188;8.696;2023-08-20T02:51:08;15.27;;;10.18;;
16845;SDS011;8539;53.188;8.696;2023-08-20T02:53:35;12.50;;;8.38;;
16845;SDS011;8539;53.188;8.696;2023-08-20T02:56:01;14.75;;;11.15;;
16845;SDS011;8539;53.188;8.696;2023-08-20T02:58:29;18.70;;;9.45;;
16845;SDS011;8539;53.188;8.696;2023-08-20T03:00:56;14.32;;;10.77;;
16845;SDS011;8539;53.188;8.696;2023-08-20T03:03:24;12.65;;;10.52;;
16845;SDS011;8539;53.188;8.696;2023-08-20T03:05:50;13.60;;;10.50;;
16845;SDS011;8539;53.188;8.696;2023-08-20T03:08:17;13.05;;;9.48;;
16845;SDS011;8539;53.188;8.696;2023-08-20T03:10:43;13.10;;;9.88;;
16845;SDS011;8539;53.188;8.696;2023-08-20T03:13:10;11.35;;;9.38;;
16845;SDS011;8539;53.188;8.696;2023-08-20T03:15:37;12.45;;;8.88;;
16845;SDS011;8539;53.188;8.696;2023-08-20T03:18:03;14.13;;;9.68;;
16845;SDS011;8539;53.188;8.696;2023-08-20T03:20:30;11.10;;;8.95;;
16845;SDS011;8539;53.188;8.696;2023-08-20T03:22:57;18.45;;;10.27;;
16845;SDS011;8539;53.188;8.696;2023-08-20T03:25:23;14.52;;;10.45;;
16845;SDS011;8539;53.188;8.696;2023-08-20T03:27:51;13.60;;;9.98;;
16845;SDS011;8539;53.188;8.696;2023-08-20T03:30:18;16.30;;;10.70;;
16845;SDS011;8539;53.188;8.696;2023-08-20T03:32:45;17.20;;;10.95;;
16845;SDS011;8539;53.188;8.696;2023-08-20T03:35:11;13.48;;;9.07;;
16845;SDS011;8539;53.188;8.696;2023-08-20T03:37:38;11.95;;;8.65;;
16845;SDS011;8539;53.188;8.696;2023-08-20T03:40:05;14.00;;;9.50;;
16845;SDS011;8539;53.188;8.696;2023-08-20T03:42:32;14.18;;;9.13;;
16845;SDS011;8539;53.188;8.696;2023-08-20T03:44:58;13.20;;;9.25;;
16845;SDS011;8539;53.188;8.696;2023-08-20T03:47:24;13.05;;;8.85;;
16845;SDS011;8539;53.188;8.696;2023-08-20T03:49:51;14.82;;;8.95;;
16845;SDS011;8539;53.188;8.696;2023-08-20T03:52:18;10.80;;;9.70;;
16845;SDS011;8539;53.188;8.696;2023-08-20T03:54:44;14.55;;;9.63;;
16845;SDS011;8539;53.188;8.696;2023-08-20T03:57:11;13.07;;;9.15;;
16845;SDS011;8539;53.188;8.696;2023-08-20T03:59:37;11.90;;;9.02;;
16845;SDS011;8539;53.188;8.696;2023-08-20T04:02:03;14.55;;;10.07;;
16845;SDS011;8539;53.188;8.696;2023-08-20T04:04:30;14.10;;;10.30;;
16845;SDS011;8539;53.188;8.696;2023-08-20T04:06:57;16.75;;;12.05;;
16845;SDS011;8539;53.188;8.696;2023-08-20T04:09:23;19.08;;;11.93;;
16845;SDS011;8539;53.188;8.696;2023-08-20T04:11:49;11.45;;;10.25;;
16845;SDS011;8539;53.188;8.696;2023-08-20T04:14:16;15.57;;;11.00;;
16845;SDS011;8539;53.188;8.696;2023-08-20T04:16:42;12.40;;;10.85;;
16845;SDS011;8539;53.188;8.696;2023-08-20T04:19:08;17.27;;;10.60;;
16845;SDS011;8539;53.188;8.696;2023-08-20T04:21:34;10.88;;;9.60;;
16845;SDS011;8539;53.188;8.696;2023-08-20T04:24:00;16.23;;;10.95;;
16845;SDS011;8539;53.188;8.696;2023-08-20T04:26:26;11.45;;;9.70;;
16845;SDS011;8539;53.188;8.696;2023-08-20T04:28:52;14.77;;;10.75;;
16845;SDS011;8539;53.188;8.696;2023-08-20T04:31:18;15.60;;;11.88;;
16845;SDS011;8539;53.188;8.696;2023-08-20T04:33:45;19.15;;;11.27;;
16845;SDS011;8539;53.188;8.696;2023-08-20T04:36:12;17.02;;;10.82;;
16845;SDS011;8539;53.188;8.696;2023-08-20T04:38:38;17.50;;;12.55;;
16845;SDS011;8539;53.188;8.696;2023-08-20T04:41:04;16.42;;;10.95;;
16845;SDS011;8539;53.188;8.696;2023-08-20T04:43:30;19.60;;;11.55;;
16845;SDS011;8539;53.188;8.696;2023-08-20T04:45:56;13.70;;;12.18;;
16845;SDS011;8539;53.188;8.696;2023-08-20T04:48:23;16.60;;;11.32;;
16845;SDS011;8539;53.188;8.696;2023-08-20T04:50:49;18.55;;;10.65;;
16845;SDS011;8539;53.188;8.696;2023-08-20T04:53:15;14.80;;;11.40;;
16845;SDS011;8539;53.188;8.696;2023-08-20T04:55:41;16.58;;;10.40;;
16845;SDS011;8539;53.188;8.696;2023-08-20T04:58:08;15.90;;;10.75;;
16845;SDS011;8539;53.188;8.696;2023-08-20T05:00:34;13.07;;;10.48;;
16845;SDS011;8539;53.188;8.696;2023-08-20T05:03:01;15.43;;;10.43;;
16845;SDS011;8539;53.188;8.696;2023-08-20T05:05:27;13.90;;;10.82;;
16845;SDS011;8539;53.188;8.696;2023-08-20T05:07:53;12.65;;;10.05;;
16845;SDS011;8539;53.188;8.696;2023-08-20T05:10:19;16.92;;;9.55;;
16845;SDS011;8539;53.188;8.696;2023-08-20T05:12:45;19.70;;;11.30;;
16845;SDS011;8539;53.188;8.696;2023-08-20T05:15:11;13.00;;;10.05;;
16845;SDS011;8539;53.188;8.696;2023-08-20T05:17:38;14.00;;;9.95;;
16845;SDS011;8539;53.188;8.696;2023-08-20T05:20:05;13.13;;;9.15;;
16845;SDS011;8539;53.188;8.696;2023-08-20T05:22:31;14.02;;;9.68;;
16845;SDS011;8539;53.188;8.696;2023-08-20T05:24:57;17.00;;;10.52;;
16845;SDS011;8539;53.188;8.696;2023-08-20T05:27:23;22.30;;;10.95;;
16845;SDS011;8539;53.188;8.696;2023-08-20T05:29:49;15.55;;;11.25;;
16845;SDS011;8539;53.188;8.696;2023-08-20T05:32:15;15.95;;;10.38;;
16845;SDS011;8539;53.188;8.696;2023-08-20T05:34:42;20.63;;;10.88;;
16845;SDS011;8539;53.188;8.696;2023-08-20T05:37:08;15.75;;;10.02;;
16845;SDS011;8539;53.188;8.696;2023-08-20T05:39:41;17.15;;;11.07;;
16845;SDS011;8539;53.188;8.696;2023-08-20T05:42:08;14.80;;;9.57;;
16845;SDS011;8539;53.188;8.696;2023-08-20T05:44:34;16.02;;;9.60;;
16845;SDS011;8539;53.188;8.696;2023-08-20T05:47:00;17.40;;;9.60;;
16845;SDS011;8539;53.188;8.696;2023-08-20T05:49:26;18.65;;;9.90;;
16845;SDS011;8539;53.188;8.696;2023-08-20T05:51:52;17.88;;;10.27;;
16845;SDS011;8539;53.188;8.696;2023-08-20T05:54:18;18.23;;;10.23;;
16845;SDS011;8539;53.188;8.696;2023-08-20T05:56:44;13.20;;;9.85;;
16845;SDS011;8539;53.188;8.696;2023-08-20T05:59:10;14.73;;;8.05;;
16845;SDS011;8539;53.188;8.696;2023-08-20T06:01:36;15.88;;;7.95;;
16845;SDS011;8539;53.188;8.696;2023-08-20T06:04:02;10.02;;;7.25;;
16845;SDS011;8539;53.188;8.696;2023-08-20T06:06:29;15.63;;;8.85;;
16845;SDS011;8539;53.188;8.696;2023-08-20T06:08:55;15.05;;;8.90;;
16845;SDS011;8539;53.188;8.696;2023-08-20T06:11:21;15.77;;;7.57;;
16845;SDS011;8539;53.188;8.696;2023-08-20T06:13:47;13.68;;;7.50;;
16845;SDS011;8539;53.188;8.696;2023-08-20T06:16:13;14.40;;;7.07;;
16845;SDS011;8539;53.188;8.696;2023-08-20T06:18:39;15.73;;;7.40;;
16845;SDS011;8539;53.188;8.696;2023-08-20T06:21:05;12.50;;;6.70;;
16845;SDS011;8539;53.188;8.696;2023-08-20T06:23:31;10.43;;;6.78;;
16845;SDS011;8539;53.188;8.696;2023-08-20T06:25:57;9.00;;;6.10;;
16845;SDS011;8539;53.188;8.696;2023-08-20T06:28:25;12.82;;;8.23;;
16845;SDS011;8539;53.188;8.696;2023-08-20T06:30:51;13.30;;;6.20;;
16845;SDS011;8539;53.188;8.696;2023-08-20T06:33:17;17.80;;;6.82;;
16845;SDS011;8539;53.188;8.696;2023-08-20T06:35:44;12.95;;;6.32;;
16845;SDS011;8539;53.188;8.696;2023-08-20T06:38:10;9.15;;;5.40;;
16845;SDS011;8539;53.188;8.696;2023-08-20T06:40:36;11.68;;;5.53;;
16845;SDS011;8539;53.188;8.696;2023-08-20T06:43:02;10.40;;;6.15;;
16845;SDS011;8539;53.188;8.696;2023-08-20T06:45:29;11.20;;;5.80;;
16845;SDS011;8539;53.188;8.696;2023-08-20T06:47:56;8.70;;;5.43;;
16845;SDS011;8539;53.188;8.696;2023-08-20T06:50:23;9.25;;;5.40;;
16845;SDS011;8539;53.188;8.696;2023-08-20T06:52:49;11.40;;;4.97;;
16845;SDS011;8539;53.188;8.696;2023-08-20T06:55:16;11.13;;;5.60;;
16845;SDS011;8539;53.188;8.696;2023-08-20T06:57:42;12.15;;;5.38;;
16845;SDS011;8539;53.188;8.696;2023-08-20T07:00:08;12.57;;;5.47;;
16845;SDS011;8539;53.188;8.696;2023-08-20T07:02:35;9.23;;;4.75;;
16845;SDS011;8539;53.188;8.696;2023-08-20T07:05:01;12.30;;;4.90;;
16845;SDS011;8539;53.188;8.696;2023-08-20T07:07:27;9.88;;;3.97;;
16845;SDS011;8539;53.188;8.696;2023-08-20T07:09:53;8.98;;;5.28;;
16845;SDS011;8539;53.188;8.696;2023-08-20T07:12:19;8.88;;;4.80;;
16845;SDS011;8539;53.188;8.696;2023-08-20T07:14:45;6.40;;;4.22;;
16845;SDS011;8539;53.188;8.696;2023-08-20T07:17:11;8.57;;;3.63;;
16845;SDS011;8539;53.188;8.696;2023-08-20T07:19:37;13.77;;;3.67;;
16845;SDS011;8539;53.188;8.696;2023-08-20T07:22:03;7.60;;;2.92;;
16845;SDS011;8539;53.188;8.696;2023-08-20T07:24:30;9.82;;;4.07;;
16845;SDS011;8539;53.188;8.696;2023-08-20T07:27:00;7.53;;;3.45;;
16845;SDS011;8539;53.188;8.696;2023-08-20T07:29:28;7.72;;;3.55;;
16845;SDS011;8539;53.188;8.696;2023-08-20T07:31:57;7.60;;;3.47;;
16845;SDS011;8539;53.188;8.696;2023-08-20T07:34:23;9.98;;;3.58;;
16845;SDS011;8539;53.188;8.696;2023-08-20T07:36:49;7.65;;;3.28;;
16845;SDS011;8539;53.188;8.696;2023-08-20T07:39:16;7.28;;;3.20;;
16845;SDS011;8539;53.188;8.696;2023-08-20T07:41:42;6.18;;;3.58;;
16845;SDS011;8539;53.188;8.696;2023-08-20T07:44:08;6.95;;;3.20;;
16845;SDS011;8539;53.188;8.696;2023-08-20T07:46:34;10.02;;;3.78;;
16845;SDS011;8539;53.188;8.696;2023-08-20T07:49:00;13.63;;;4.57;;
16845;SDS011;8539;53.188;8.696;2023-08-20T07:51:27;9.23;;;4.30;;
16845;SDS011;8539;53.188;8.696;2023-08-20T07:53:54;8.95;;;3.47;;
16845;SDS011;8539;53.188;8.696;2023-08-20T07:56:20;6.82;;;3.33;;
16845;SDS011;8539;53.188;8.696;2023-08-20T07:58:46;14.88;;;4.18;;
16845;SDS011;8539;53.188;8.696;2023-08-20T08:01:13;8.00;;;3.88;;
16845;SDS011;8539;53.188;8.696;2023-08-20T08:03:39;8.70;;;4.07;;
16845;SDS011;8539;53.188;8.696;2023-08-20T08:06:05;7.35;;;3.50;;
16845;SDS011;8539;53.188;8.696;2023-08-20T08:08:31;8.52;;;3.97;;
16845;SDS011;8539;53.188;8.696;2023-08-20T08:10:57;9.30;;;3.92;;
16845;SDS011;8539;53.188;8.696;2023-08-20T08:13:23;5.70;;;3.47;;
16845;SDS011;8539;53.188;8.696;2023-08-20T08:15:52;10.13;;;3.65;;
16845;SDS011;8539;53.188;8.696;2023-08-20T08:18:21;6.57;;;3.35;;
16845;SDS011;8539;53.188;8.696;2023-08-20T08:20:47;8.10;;;3.05;;
16845;SDS011;8539;53.188;8.696;2023-08-20T08:23:13;7.85;;;3.38;;
16845;SDS011;8539;53.188;8.696;2023-08-20T08:25:39;10.05;;;3.47;;
16845;SDS011;8539;53.188;8.696;2023-08-20T08:28:05;9.70;;;2.70;;
16845;SDS011;8539;53.188;8.696;2023-08-20T08:30:32;8.73;;;2.90;;
16845;SDS011;8539;53.188;8.696;2023-08-20T08:32:58;5.82;;;2.58;;
16845;SDS011;8539;53.188;8.696;2023-08-20T08:35:24;7.10;;;2.20;;
16845;SDS011;8539;53.188;8.696;2023-08-20T08:37:50;7.75;;;2.72;;
16845;SDS011;8539;53.188;8.696;2023-08-20T08:40:16;9.77;;;2.75;;
16845;SDS011;8539;53.188;8.696;2023-08-20T08:42:47;8.13;;;3.08;;
16845;SDS011;8539;53.188;8.696;2023-08-20T08:45:20;11.95;;;3.55;;
16845;SDS011;8539;53.188;8.696;2023-08-20T08:47:47;5.82;;;2.92;;
16845;SDS011;8539;53.188;8.696;2023-08-20T08:50:14;13.10;;;4.38;;
16845;SDS011;8539;53.188;8.696;2023-08-20T08:52:41;8.10;;;4.07;;
16845;SDS011;8539;53.188;8.696;2023-08-20T08:55:08;12.35;;;3.97;;
16845;SDS011;8539;53.188;8.696;2023-08-20T08:57:35;11.25;;;3.45;;
16845;SDS011;8539;53.188;8.696;2023-08-20T09:00:02;6.28;;;3.08;;
16845;SDS011;8539;53.188;8.696;2023-08-20T09:02:29;13.93;;;3.45;;
16845;SDS011;8539;53.188;8.696;2023-08-20T09:04:55;7.85;;;3.42;;
16845;SDS011;8539;53.188;8.696;2023-08-20T09:07:22;6.53;;;3.20;;
16845;SDS011;8539;53.188;8.696;2023-08-20T09:09:48;10.93;;;3.63;;
16845;SDS011;8539;53.188;8.696;2023-08-20T09:12:15;6.55;;;3.60;;
16845;SDS011;8539;53.188;8.696;2023-08-20T09:14:49;9.15;;;3.42;;
16845;SDS011;8539;53.188;8.696;2023-08-20T09:17:18;11.65;;;3.83;;
16845;SDS011;8539;53.188;8.696;2023-08-20T09:19:47;8.00;;;4.18;;
16845;SDS011;8539;53.188;8.696;2023-08-20T09:22:14;9.10;;;3.97;;
16845;SDS011;8539;53.188;8.696;2023-08-20T09:27:09;17.65;;;5.55;;
16845;SDS011;8539;53.188;8.696;2023-08-20T09:29:43;9.82;;;4.28;;
16845;SDS011;8539;53.188;8.696;2023-08-20T09:32:14;11.18;;;5.28;;
16845;SDS011;8539;53.188;8.696;2023-08-20T09:34:44;7.00;;;4.68;;
16845;SDS011;8539;53.188;8.696;2023-08-20T09:37:14;9.32;;;4.13;;
16845;SDS011;8539;53.188;8.696;2023-08-20T09:39:42;12.98;;;5.53;;
16845;SDS011;8539;53.188;8.696;2023-08-20T09:42:09;14.50;;;4.97;;
16845;SDS011;8539;53.188;8.696;2023-08-20T09:44:36;12.35;;;4.53;;
16845;SDS011;8539;53.188;8.696;2023-08-20T09:47:08;9.57;;;5.20;;
16845;SDS011;8539;53.188;8.696;2023-08-20T09:49:37;9.07;;;4.32;;
16845;SDS011;8539;53.188;8.696;2023-08-20T09:52:04;8.35;;;5.00;;
16845;SDS011;8539;53.188;8.696;2023-08-20T09:54:49;10.82;;;4.45;;
16845;SDS011;8539;53.188;8.696;2023-08-20T09:57:58;9.70;;;3.92;;
16845;SDS011;8539;53.188;8.696;2023-08-20T10:00:09;6.07;;;3.58;;
16845;SDS011;8539;53.188;8.696;2023-08-20T10:02:38;11.80;;;3.63;;
16845;SDS011;8539;53.188;8.696;2023-08-20T10:05:06;7.43;;;4.00;;
16845;SDS011;8539;53.188;8.696;2023-08-20T10:07:33;7.68;;;3.38;;
16845;SDS011;8539;53.188;8.696;2023-08-20T10:10:01;11.55;;;3.58;;
16845;SDS011;8539;53.188;8.696;2023-08-20T10:12:28;6.60;;;3.45;;
16845;SDS011;8539;53.188;8.696;2023-08-20T10:14:56;9.95;;;3.88;;
16845;SDS011;8539;53.188;8.696;2023-08-20T10:17:23;10.27;;;3.95;;
16845;SDS011;8539;53.188;8.696;2023-08-20T10:19:52;9.23;;;4.75;;
16845;SDS011;8539;53.188;8.696;2023-08-20T10:22:19;10.32;;;4.15;;
16845;SDS011;8539;53.188;8.696;2023-08-20T10:24:48;5.72;;;3.47;;
16845;SDS011;8539;53.188;8.696;2023-08-20T10:27:24;14.82;;;4.22;;
16845;SDS011;8539;53.188;8.696;2023-08-20T10:29:57;8.73;;;4.13;;
16845;SDS011;8539;53.188;8.696;2023-08-20T10:35:18;9.65;;;4.07;;
16845;SDS011;8539;53.188;8.696;2023-08-20T10:38:07;6.78;;;3.53;;
16845;SDS011;8539;53.188;8.696;2023-08-20T10:40:53;13.18;;;4.97;;
16845;SDS011;8539;53.188;8.696;2023-08-20T10:48:31;10.02;;;3.90;;
16845;SDS011;8539;53.188;8.696;2023-08-20T11:01:49;12.80;;;3.90;;
16845;SDS011;8539;53.188;8.696;2023-08-20T11:04:16;7.93;;;3.22;;
16845;SDS011;8539;53.188;8.696;2023-08-20T11:06:44;7.22;;;3.40;;
16845;SDS011;8539;53.188;8.696;2023-08-20T11:09:11;6.88;;;2.35;;
16845;SDS011;8539;53.188;8.696;2023-08-20T11:11:39;4.63;;;3.13;;
16845;SDS011;8539;53.188;8.696;2023-08-20T11:14:07;9.20;;;4.10;;
16845;SDS011;8539;53.188;8.696;2023-08-20T11:16:39;5.10;;;3.10;;
16845;SDS011;8539;53.188;8.696;2023-08-20T11:19:06;10.52;;;4.22;;
16845;SDS011;8539;53.188;8.696;2023-08-20T11:21:35;7.95;;;3.80;;
16845;SDS011;8539;53.188;8.696;2023-08-20T11:24:06;7.32;;;3.08;;
16845;SDS011;8539;53.188;8.696;2023-08-20T11:26:38;5.32;;;3.00;;
16845;SDS011;8539;53.188;8.696;2023-08-20T11:29:05;11.23;;;3.75;;
16845;SDS011;8539;53.188;8.696;2023-08-20T11:31:32;9.10;;;3.38;;
16845;SDS011;8539;53.188;8.696;2023-08-20T11:33:59;5.43;;;3.38;;
16845;SDS011;8539;53.188;8.696;2023-08-20T11:36:26;6.10;;;3.53;;
16845;SDS011;8539;53.188;8.696;2023-08-20T11:38:53;8.75;;;3.33;;
16845;SDS011;8539;53.188;8.696;2023-08-20T11:41:20;11.13;;;3.65;;
16845;SDS011;8539;53.188;8.696;2023-08-20T11:43:48;6.32;;;3.03;;
16845;SDS011;8539;53.188;8.696;2023-08-20T11:46:15;9.43;;;3.13;;
16845;SDS011;8539;53.188;8.696;2023-08-20T11:49:06;7.07;;;2.80;;
16845;SDS011;8539;53.188;8.696;2023-08-20T11:51:37;8.93;;;3.30;;
16845;SDS011;8539;53.188;8.696;2023-08-20T11:54:16;5.05;;;2.97;;
16845;SDS011;8539;53.188;8.696;2023-08-20T11:59:12;7.53;;;2.63;;
16845;SDS011;8539;53.188;8.696;2023-08-20T12:01:39;11.15;;;2.72;;
16845;SDS011;8539;53.188;8.696;2023-08-20T12:04:08;4.20;;;2.50;;
16845;SDS011;8539;53.188;8.696;2023-08-20T12:06:36;5.82;;;2.50;;
16845;SDS011;8539;53.188;8.696;2023-08-20T12:09:22;7.72;;;2.90;;
16845;SDS011;8539;53.188;8.696;2023-08-20T12:11:51;10.57;;;2.78;;
16845;SDS011;8539;53.188;8.696;2023-08-20T12:14:18;9.07;;;2.97;;
16845;SDS011;8539;53.188;8.696;2023-08-20T12:16:44;5.03;;;2.80;;
16845;SDS011;8539;53.188;8.696;2023-08-20T12:19:11;5.47;;;2.60;;
16845;SDS011;8539;53.188;8.696;2023-08-20T12:21:39;7.53;;;2.25;;
16845;SDS011;8539;53.188;8.696;2023-08-20T12:24:07;7.78;;;2.20;;
16845;SDS011;8539;53.188;8.696;2023-08-20T12:26:35;9.50;;;2.72;;
16845;SDS011;8539;53.188;8.696;2023-08-20T12:29:04;6.78;;;2.78;;
16845;SDS011;8539;53.188;8.696;2023-08-20T12:31:31;4.22;;;2.30;;
16845;SDS011;8539;53.188;8.696;2023-08-20T12:33:58;5.13;;;2.30;;
16845;SDS011;8539;53.188;8.696;2023-08-20T12:36:25;5.45;;;3.08;;
16845;SDS011;8539;53.188;8.696;2023-08-20T12:38:51;10.23;;;2.83;;
16845;SDS011;8539;53.188;8.696;2023-08-20T12:41:18;6.20;;;2.60;;
16845;SDS011;8539;53.188;8.696;2023-08-20T12:43:45;5.38;;;2.42;;
16845;SDS011;8539;53.188;8.696;2023-08-20T12:46:11;5.65;;;3.00;;
16845;SDS011;8539;53.188;8.696;2023-08-20T12:48:39;5.20;;;2.25;;
16845;SDS011;8539;53.188;8.696;2023-08-20T12:51:08;8.02;;;2.60;;
16845;SDS011;8539;53.188;8.696;2023-08-20T12:53:39;7.15;;;3.22;;
16845;SDS011;8539;53.188;8.696;2023-08-20T12:56:05;6.47;;;2.60;;
16845;SDS011;8539;53.188;8.696;2023-08-20T12:58:31;6.00;;;2.50;;
16845;SDS011;8539;53.188;8.696;2023-08-20T13:00:58;5.78;;;2.08;;
16845;SDS011;8539;53.188;8.696;2023-08-20T13:03:26;6.22;;;2.78;;
16845;SDS011;8539;53.188;8.696;2023-08-20T13:05:54;7.00;;;2.63;;
16845;SDS011;8539;53.188;8.696;2023-08-20T13:08:23;4.03;;;2.33;;
16845;SDS011;8539;53.188;8.696;2023-08-20T13:10:52;5.88;;;2.40;;
16845;SDS011;8539;53.188;8.696;2023-08-20T13:13:23;9.05;;;2.58;;
16845;SDS011;8539;53.188;8.696;2023-08-20T13:15:50;4.78;;;2.67;;
16845;SDS011;8539;53.188;8.696;2023-08-20T13:18:20;6.15;;;1.95;;
16845;SDS011;8539;53.188;8.696;2023-08-20T13:20:53;6.78;;;2.78;;
16845;SDS011;8539;53.188;8.696;2023-08-20T13:23:22;4.88;;;2.05;;
16845;SDS011;8539;53.188;8.696;2023-08-20T13:25:49;3.47;;;1.88;;
16845;SDS011;8539;53.188;8.696;2023-08-20T13:28:15;6.20;;;2.50;;
16845;SDS011;8539;53.188;8.696;2023-08-20T13:30:41;4.97;;;2.10;;
16845;SDS011;8539;53.188;8.696;2023-08-20T13:33:09;3.80;;;1.73;;
16845;SDS011;8539;53.188;8.696;2023-08-20T13:35:35;5.68;;;1.95;;
16845;SDS011;8539;53.188;8.696;2023-08-20T13:38:02;3.20;;;1.95;;
16845;SDS011;8539;53.188;8.696;2023-08-20T13:40:32;3.38;;;1.90;;
16845;SDS011;8539;53.188;8.696;2023-08-20T13:43:01;6.18;;;2.50;;
16845;SDS011;8539;53.188;8.696;2023-08-20T13:45:29;6.95;;;2.55;;
16845;SDS011;8539;53.188;8.696;2023-08-20T13:47:56;4.45;;;2.15;;
16845;SDS011;8539;53.188;8.696;2023-08-20T13:50:23;6.38;;;2.72;;
16845;SDS011;8539;53.188;8.696;2023-08-20T13:53:22;4.15;;;2.00;;
16845;SDS011;8539;53.188;8.696;2023-08-20T13:59:06;3.00;;;1.77;;
16845;SDS011;8539;53.188;8.696;2023-08-20T14:02:04;4.88;;;2.08;;
16845;SDS011;8539;53.188;8.696;2023-08-20T14:04:32;3.40;;;2.00;;
16845;SDS011;8539;53.188;8.696;2023-08-20T14:06:58;2.70;;;1.60;;
16845;SDS011;8539;53.188;8.696;2023-08-20T14:09:25;4.72;;;2.20;;
16845;SDS011;8539;53.188;8.696;2023-08-20T14:11:51;5.90;;;1.88;;
16845;SDS011;8539;53.188;8.696;2023-08-20T14:14:17;6.05;;;1.90;;
16845;SDS011;8539;53.188;8.696;2023-08-20T14:16:44;4.57;;;1.65;;
16845;SDS011;8539;53.188;8.696;2023-08-20T14:19:11;6.05;;;1.60;;
16845;SDS011;8539;53.188;8.696;2023-08-20T14:21:37;7.30;;;2.47;;
16845;SDS011;8539;53.188;8.696;2023-08-20T14:24:06;6.85;;;2.25;;
16845;SDS011;8539;53.188;8.696;2023-08-20T14:26:32;6.18;;;2.33;;
16845;SDS011;8539;53.188;8.696;2023-08-20T14:29:01;5.65;;;1.67;;
16845;SDS011;8539;53.188;8.696;2023-08-20T14:31:27;3.03;;;1.55;;
16845;SDS011;8539;53.188;8.696;2023-08-20T14:33:53;3.75;;;1.35;;
16845;SDS011;8539;53.188;8.696;2023-08-20T14:36:20;3.00;;;1.85;;
16845;SDS011;8539;53.188;8.696;2023-08-20T14:38:54;3.65;;;1.35;;
16845;SDS011;8539;53.188;8.696;2023-08-20T14:41:29;5.50;;;1.85;;
16845;SDS011;8539;53.188;8.696;2023-08-20T14:44:41;4.93;;;1.40;;
16845;SDS011;8539;53.188;8.696;2023-08-20T14:47:08;3.25;;;1.33;;
16845;SDS011;8539;53.188;8.696;2023-08-20T14:49:34;5.10;;;1.70;;
16845;SDS011;8539;53.188;8.696;2023-08-20T14:52:00;2.90;;;1.60;;
16845;SDS011;8539;53.188;8.696;2023-08-20T14:54:29;3.53;;;1.90;;
16845;SDS011;8539;53.188;8.696;2023-08-20T14:56:55;2.80;;;1.42;;
16845;SDS011;8539;53.188;8.696;2023-08-20T14:59:22;5.13;;;1.45;;
16845;SDS011;8539;53.188;8.696;2023-08-20T15:01:51;2.20;;;1.38;;
16845;SDS011;8539;53.188;8.696;2023-08-20T15:04:17;3.47;;;1.40;;
16845;SDS011;8539;53.188;8.696;2023-08-20T15:06:43;5.15;;;1.42;;
16845;SDS011;8539;53.188;8.696;2023-08-20T15:09:09;3.67;;;1.60;;
16845;SDS011;8539;53.188;8.696;2023-08-20T15:11:47;5.13;;;1.73;;
16845;SDS011;8539;53.188;8.696;2023-08-20T15:14:16;2.97;;;1.58;;
16845;SDS011;8539;53.188;8.696;2023-08-20T15:16:42;3.47;;;1.60;;
16845;SDS011;8539;53.188;8.696;2023-08-20T15:19:08;2.88;;;1.55;;
16845;SDS011;8539;53.188;8.696;2023-08-20T15:21:40;4.97;;;1.45;;
16845;SDS011;8539;53.188;8.696;2023-08-20T15:24:09;5.20;;;1.80;;
16845;SDS011;8539;53.188;8.696;2023-08-20T15:26:35;4.25;;;1.48;;
16845;SDS011;8539;53.188;8.696;2023-08-20T15:29:02;3.00;;;1.58;;
16845;SDS011;8539;53.188;8.696;2023-08-20T15:31:29;1.85;;;0.80;;
16845;SDS011;8539;53.188;8.696;2023-08-20T15:33:55;4.28;;;1.85;;
16845;SDS011;8539;53.188;8.696;2023-08-20T15:36:21;2.83;;;1.23;;
16845;SDS011;8539;53.188;8.696;2023-08-20T15:38:47;3.28;;;1.23;;
16845;SDS011;8539;53.188;8.696;2023-08-20T15:41:13;2.38;;;1.15;;